Time;durP1;ratioP1;P1;durP2;ratioP2;P2;SDS_P1;SDS_P2;PMS_P1;PMS_P2;Temp;Humidity;BMP_temperature;BMP_pressure;BME280_temperature;BME280_humidity;BME280_pressure;Samples;Min_cycle;Max_cycle;Signal;HPM_P1;HPM_P2
2022/01/08 00:01:11;;;;;;;39.10;26.80;;;;;;;0.96;100.00;100423.28;6179410;23;20021;-88
2022/01/08 00:03:38;;;;;;;35.92;23.40;;;;;;;0.89;100.00;100431.66;6202861;23;20027;-88
2022/01/08 00:06:04;;;;;;;32.75;22.42;;;;;;;0.88;100.00;100424.66;6205916;23;20051;-89
2022/01/08 00:08:30;;;;;;;39.72;26.67;;;;;;;0.88;100.00;100426.47;6205909;23;20052;-89
2022/01/08 00:10:56;;;;;;;41.05;24.90;;;;;;;0.89;100.00;100420.22;6205809;23;20020;-89
2022/01/08 00:13:21;;;;;;;36.42;21.00;;;;;;;0.86;100.00;100421.31;6204396;23;20017;-89
2022/01/08 00:15:48;;;;;;;36.65;21.52;;;;;;;0.82;100.00;100424.28;6154364;23;20046;-89
2022/01/08 00:18:14;;;;;;;37.20;22.90;;;;;;;0.81;100.00;100423.44;6179465;23;20013;-88
2022/01/08 00:20:40;;;;;;;41.38;28.00;;;;;;;0.85;100.00;100421.41;6175956;23;20364;-88
2022/01/08 00:23:06;;;;;;;40.35;24.48;;;;;;;0.81;100.00;100419.94;6202035;23;20017;-90
2022/01/08 00:25:32;;;;;;;41.08;26.02;;;;;;;0.78;100.00;100425.47;6200716;23;20016;-89
2022/01/08 00:27:57;;;;;;;45.03;32.03;;;;;;;0.79;100.00;100421.84;6152618;23;20016;-88
2022/01/08 00:30:24;;;;;;;42.63;29.08;;;;;;;0.74;100.00;100421.34;6164856;23;20024;-89
2022/01/08 00:32:51;;;;;;;42.28;26.02;;;;;;;0.74;100.00;100416.88;6177795;23;20096;-89
2022/01/08 00:35:17;;;;;;;38.53;24.98;;;;;;;0.73;100.00;100414.38;6201481;23;20017;-88
2022/01/08 00:37:43;;;;;;;34.88;21.90;;;;;;;0.70;100.00;100417.25;6176676;23;20016;-89
2022/01/08 00:40:11;;;;;;;46.90;29.25;;;;;;;0.72;100.00;100416.19;6177815;23;20013;-88
2022/01/08 00:42:38;;;;;;;45.10;24.13;;;;;;;0.65;100.00;100421.03;6151599;23;20044;-88
2022/01/08 00:45:05;;;;;;;42.90;24.40;;;;;;;0.63;100.00;100416.81;6201048;23;20024;-88
2022/01/08 00:47:30;;;;;;;37.95;25.70;;;;;;;0.66;100.00;100416.59;6205097;23;20028;-88
2022/01/08 00:49:56;;;;;;;37.78;23.52;;;;;;;0.67;100.00;100415.66;6178174;23;20021;-87
2022/01/08 00:52:22;;;;;;;42.65;27.58;;;;;;;0.66;100.00;100422.75;6178007;23;20021;-88
2022/01/08 00:54:47;;;;;;;40.72;25.60;;;;;;;0.65;100.00;100426.31;6199018;23;20016;-88
2022/01/08 00:57:14;;;;;;;40.03;25.10;;;;;;;0.62;100.00;100423.06;6154554;23;20196;-88
2022/01/08 00:59:39;;;;;;;44.17;28.80;;;;;;;0.62;100.00;100415.97;6175586;23;20025;-89
2022/01/08 01:02:05;;;;;;;46.00;30.30;;;;;;;0.60;100.00;100417.88;6204445;23;20513;-88
2022/01/08 01:04:30;;;;;;;48.30;31.42;;;;;;;0.60;100.00;100417.88;6129106;23;20016;-89
2022/01/08 01:06:56;;;;;;;40.30;25.58;;;;;;;0.56;100.00;100413.78;6178195;23;20020;-89
2022/01/08 01:09:24;;;;;;;51.75;29.23;;;;;;;0.60;100.00;100425.78;6171026;23;20079;-89
2022/01/08 01:11:57;;;;;;;40.55;25.80;;;;;;;0.59;100.00;100429.41;6205475;23;20017;-88
2022/01/08 01:14:23;;;;;;;40.92;25.45;;;;;;;0.54;100.00;100425.38;6210527;23;20447;-89
2022/01/08 01:16:49;;;;;;;47.53;32.25;;;;;;;0.55;100.00;100425.31;6185589;23;20091;-89
2022/01/08 01:19:14;;;;;;;38.50;27.00;;;;;;;0.55;100.00;100424.47;6161096;23;20371;-89
2022/01/08 01:21:40;;;;;;;49.42;29.02;;;;;;;0.53;100.00;100427.19;6159567;23;20061;-89
2022/01/08 01:24:13;;;;;;;47.50;28.25;;;;;;;0.55;100.00;100430.59;6159125;23;20447;-89
2022/01/08 01:26:44;;;;;;;43.67;25.98;;;;;;;0.47;100.00;100427.63;6209377;23;20092;-88
2022/01/08 01:29:38;;;;;;;40.60;29.48;;;;;;;0.47;100.00;100429.44;6209269;23;20527;-89
2022/01/08 01:48:20;;;;;;;44.15;27.83;;;;;;;0.40;100.00;100450.13;6212058;23;20083;-88
2022/01/08 01:50:45;;;;;;;42.30;25.65;;;;;;;0.37;100.00;100456.47;6158990;23;20632;-89
2022/01/08 01:53:12;;;;;;;51.85;32.83;;;;;;;0.40;100.00;100452.75;6184469;23;20012;-88
2022/01/08 01:55:37;;;;;;;49.72;30.17;;;;;;;0.35;100.00;100454.91;6206171;23;20340;-91
2022/01/08 01:58:05;;;;;;;62.88;36.75;;;;;;;0.35;100.00;100450.47;6178477;23;20025;-90
2022/01/08 02:00:32;;;;;;;49.65;30.33;;;;;;;0.30;100.00;100449.09;6188801;23;20040;-88
2022/01/08 02:02:59;;;;;;;51.67;30.38;;;;;;;0.28;100.00;100438.63;6209933;23;20459;-89
2022/01/08 02:05:24;;;;;;;53.63;29.63;;;;;;;0.30;100.00;100447.28;6209215;23;20104;-87
2022/01/08 02:07:50;;;;;;;48.55;30.13;;;;;;;0.26;100.00;100450.25;6210791;23;20364;-90
2022/01/08 02:10:15;;;;;;;45.20;27.58;;;;;;;0.19;100.00;100448.03;6209688;23;20024;-88
2022/01/08 02:12:41;;;;;;;53.90;32.80;;;;;;;0.22;100.00;100445.19;6207840;23;20074;-89
2022/01/08 02:15:06;;;;;;;58.47;39.38;;;;;;;0.20;100.00;100440.94;6210562;23;20016;-89
2022/01/08 02:17:32;;;;;;;61.78;38.90;;;;;;;0.22;100.00;100447.81;6209072;23;20044;-89
2022/01/08 02:19:57;;;;;;;61.83;35.35;;;;;;;0.21;100.00;100448.78;6209589;23;20009;-87
2022/01/08 02:22:23;;;;;;;58.85;38.95;;;;;;;0.29;100.00;100439.47;6160241;23;20028;-88
2022/01/08 02:24:49;;;;;;;59.47;37.25;;;;;;;0.21;100.00;100430.31;6210287;23;20048;-87
2022/01/08 02:27:15;;;;;;;64.28;43.72;;;;;;;0.19;100.00;100428.72;6209252;23;20024;-87
2022/01/08 02:29:42;;;;;;;64.88;43.03;;;;;;;0.26;100.00;100435.28;6211009;23;20021;-88
2022/01/08 02:32:15;;;;;;;61.97;41.72;;;;;;;0.24;100.00;100436.31;6209930;23;20044;-88
2022/01/08 02:34:42;;;;;;;69.85;42.90;;;;;;;0.21;100.00;100440.03;6204541;23;20105;-88
2022/01/08 02:37:09;;;;;;;68.30;45.50;;;;;;;0.16;100.00;100424.50;6180154;23;20448;-89
2022/01/08 02:39:40;;;;;;;64.88;36.42;;;;;;;0.08;100.00;100424.19;6203439;23;20367;-88
2022/01/08 02:42:08;;;;;;;70.43;47.42;;;;;;;0.12;100.00;100406.34;6210872;23;20463;-90
2022/01/08 02:44:34;;;;;;;69.93;42.95;;;;;;;0.14;100.00;100409.72;6183931;23;20257;-89
2022/01/08 02:47:00;;;;;;;67.03;41.15;;;;;;;0.16;100.00;100413.94;6179609;23;20455;-90
2022/01/08 02:49:26;;;;;;;60.72;36.80;;;;;;;0.12;100.00;100416.91;6199239;23;20027;-88
2022/01/08 02:51:52;;;;;;;72.82;46.08;;;;;;;0.14;100.00;100409.72;6184328;23;20020;-88
2022/01/08 02:54:18;;;;;;;68.68;40.42;;;;;;;0.10;100.00;100402.97;6209481;23;20016;-89
2022/01/08 02:56:47;;;;;;;64.00;36.78;;;;;;;0.07;100.00;100406.66;6207718;23;20116;-89
2022/01/08 02:59:13;;;;;;;63.55;39.53;;;;;;;0.07;100.00;100408.47;6211041;23;20024;-88
2022/01/08 03:01:39;;;;;;;71.55;46.63;;;;;;;0.07;100.00;100419.84;6183368;23;20333;-88
2022/01/08 03:04:06;;;;;;;76.32;46.15;;;;;;;0.04;100.00;100414.78;6209783;23;20021;-90
2022/01/08 03:06:31;;;;;;;68.47;39.97;;;;;;;0.01;100.00;100417.66;6211158;23;20021;-88
2022/01/08 03:08:57;;;;;;;77.50;46.28;;;;;;;-0.04;100.00;100417.94;6160197;23;20474;-89
2022/01/08 03:11:23;;;;;;;80.13;48.10;;;;;;;-0.01;100.00;100414.25;6182858;23;20462;-88
2022/01/08 03:13:49;;;;;;;73.47;44.08;;;;;;;-0.03;100.00;100413.50;6180799;23;20016;-88
2022/01/08 03:16:15;;;;;;;63.13;38.58;;;;;;;-0.07;100.00;100412.88;6160406;23;20020;-87
2022/01/08 03:18:41;;;;;;;73.97;46.33;;;;;;;-0.03;100.00;100424.06;6207314;23;20067;-88
2022/01/08 03:21:15;;;;;;;68.97;42.63;;;;;;;-0.03;100.00;100414.38;6184522;23;20025;-87
2022/01/08 03:23:59;;;;;;;71.93;41.35;;;;;;;-0.07;100.00;100418.16;6205455;23;20039;-87
2022/01/08 03:26:27;;;;;;;80.88;49.13;;;;;;;-0.03;100.00;100422.31;6134492;23;20044;-86
2022/01/08 03:28:54;;;;;;;73.45;42.83;;;;;;;-0.09;100.00;100425.31;6178992;23;20032;-87
2022/01/08 03:31:22;;;;;;;82.93;44.60;;;;;;;-0.04;100.00;100430.31;6178955;23;20028;-88
2022/01/08 03:33:54;;;;;;;87.47;53.28;;;;;;;-0.07;100.00;100428.72;6203623;23;20901;-87
2022/01/08 03:36:23;;;;;;;72.95;42.33;;;;;;;-0.12;100.00;100435.25;6206009;23;20163;-88
2022/01/08 03:38:50;;;;;;;72.93;41.90;;;;;;;-0.14;100.00;100437.16;6129458;23;20024;-87
2022/01/08 03:41:19;;;;;;;69.70;37.40;;;;;;;-0.17;100.00;100440.00;6179611;23;20412;-88
2022/01/08 03:43:45;;;;;;;81.70;49.83;;;;;;;-0.14;100.00;100437.16;6153904;23;20031;-88
2022/01/08 03:46:12;;;;;;;66.78;40.88;;;;;;;-0.13;100.00;100449.41;6180691;23;20459;-87
2022/01/08 03:48:46;;;;;;;84.85;52.72;;;;;;;-0.14;100.00;100438.00;6203274;23;20024;-87
2022/01/08 03:51:13;;;;;;;79.65;45.53;;;;;;;-0.11;100.00;100452.78;6154578;23;20460;-87
2022/01/08 03:53:39;;;;;;;71.38;39.90;;;;;;;-0.21;100.00;100452.53;6177159;23;20044;-88
2022/01/08 03:56:05;;;;;;;69.05;46.47;;;;;;;-0.21;100.00;100459.63;6169452;23;20025;-86
2022/01/08 03:58:30;;;;;;;79.07;50.55;;;;;;;-0.13;100.00;100459.94;6202187;23;20024;-88
2022/01/08 04:00:56;;;;;;;74.72;43.72;;;;;;;-0.16;100.00;100454.88;6205337;23;20013;-87
2022/01/08 04:03:21;;;;;;;67.38;38.25;;;;;;;-0.22;100.00;100457.94;6177290;23;20028;-86
2022/01/08 04:05:49;;;;;;;84.68;54.90;;;;;;;-0.16;100.00;100454.88;6205132;23;20021;-86
2022/01/08 04:08:18;;;;;;;84.70;56.70;;;;;;;-0.13;100.00;100462.59;6155059;23;20027;-87
2022/01/08 04:10:44;;;;;;;70.43;42.67;;;;;;;-0.17;100.00;100453.19;6204220;23;20028;-86
2022/01/08 04:13:13;;;;;;;71.90;40.13;;;;;;;-0.21;100.00;100455.19;6178834;23;20020;-88
2022/01/08 04:15:46;;;;;;;76.28;49.38;;;;;;;-0.17;100.00;100454.03;6205250;23;20111;-86
2022/01/08 04:18:12;;;;;;;70.80;42.83;;;;;;;-0.18;100.00;100464.69;6204508;23;20363;-89
2022/01/08 04:20:50;;;;;;;79.90;49.33;;;;;;;-0.15;100.00;100456.56;6202518;23;20066;-85
2022/01/08 04:23:20;;;;;;;70.28;43.42;;;;;;;-0.21;100.00;100460.47;6156701;23;20015;-85
2022/01/08 04:25:46;;;;;;;70.03;42.55;;;;;;;-0.16;100.00;100465.44;6206230;23;20016;-88
2022/01/08 04:28:12;;;;;;;72.40;48.70;;;;;;;-0.14;100.00;100466.19;6206771;23;20078;-88
2022/01/08 04:30:38;;;;;;;64.15;37.33;;;;;;;-0.17;100.00;100464.59;6204265;23;20024;-86
2022/01/08 04:33:05;;;;;;;73.43;45.67;;;;;;;-0.13;100.00;100471.34;6179270;23;20020;-87
2022/01/08 04:35:30;;;;;;;62.88;39.35;;;;;;;-0.11;100.00;100469.44;6203544;23;20183;-87
2022/01/08 04:37:56;;;;;;;71.53;42.97;;;;;;;-0.08;100.00;100474.53;6206976;23;20044;-86
2022/01/08 04:40:21;;;;;;;62.55;44.78;;;;;;;-0.05;100.00;100479.59;6129826;23;20016;-86
2022/01/08 04:42:46;;;;;;;62.83;39.10;;;;;;;-0.05;100.00;100478.75;6178773;23;20328;-85
2022/01/08 04:45:12;;;;;;;66.07;40.65;;;;;;;-0.07;100.00;100478.84;6179399;23;20023;-87
2022/01/08 04:47:39;;;;;;;64.22;44.20;;;;;;;-0.09;100.00;100480.72;6128968;23;20020;-87
2022/01/08 04:50:04;;;;;;;61.28;39.90;;;;;;;-0.09;100.00;100480.72;6207630;23;20483;-86
2022/01/08 04:52:31;;;;;;;55.38;33.85;;;;;;;-0.07;100.00;100484.13;6203909;23;20024;-87
2022/01/08 04:54:56;;;;;;;60.33;39.03;;;;;;;-0.02;100.00;100484.66;6155723;23;20447;-85
2022/01/08 04:57:22;;;;;;;56.53;37.13;;;;;;;-0.06;100.00;100483.19;6154248;23;20024;-86
2022/01/08 04:59:47;;;;;;;59.03;37.55;;;;;;;-0.03;100.00;100476.81;6154309;23;20013;-85
2022/01/08 05:02:13;;;;;;;58.40;36.30;;;;;;;0.00;100.00;100474.00;6181214;23;20088;-87
2022/01/08 05:04:39;;;;;;;49.15;31.52;;;;;;;-0.01;100.00;100482.84;6129887;23;20012;-87
2022/01/08 05:07:04;;;;;;;60.33;38.05;;;;;;;-0.04;100.00;100483.06;6206185;23;20024;-86
2022/01/08 05:09:36;;;;;;;54.28;35.58;;;;;;;-0.05;100.00;100486.66;6204553;23;20017;-85
2022/01/08 05:12:02;;;;;;;53.15;33.67;;;;;;;-0.01;100.00;100490.75;6130230;23;20020;-85
2022/01/08 05:14:29;;;;;;;50.47;34.03;;;;;;;-0.01;100.00;100491.59;6207790;23;20075;-86
2022/01/08 05:17:01;;;;;;;52.80;32.90;;;;;;;-0.02;100.00;100479.38;6179098;23;20095;-88
2022/01/08 05:19:46;;;;;;;59.67;37.92;;;;;;;0.00;100.00;100489.84;6203685;23;20016;-88
2022/01/08 05:22:22;;;;;;;61.40;35.70;;;;;;;0.02;100.00;100485.28;6148728;23;20024;-87
2022/01/08 05:24:49;;;;;;;52.40;35.92;;;;;;;0.00;100.00;100489.84;6177996;23;20402;-85
2022/01/08 05:27:17;;;;;;;51.67;32.72;;;;;;;-0.03;100.00;100479.47;6179287;23;20016;-86
2022/01/08 05:29:46;;;;;;;48.95;32.25;;;;;;;-0.06;100.00;100482.31;6130216;23;20025;-86
2022/01/08 05:32:16;;;;;;;48.15;30.15;;;;;;;-0.04;100.00;100483.91;6205475;23;20013;-86
2022/01/08 05:34:46;;;;;;;48.08;32.70;;;;;;;0.03;100.00;100492.25;6179734;23;20017;-86
2022/01/08 05:37:13;;;;;;;55.10;35.20;;;;;;;-0.01;100.00;100486.31;6180575;23;20043;-86
2022/01/08 05:39:39;;;;;;;45.83;30.65;;;;;;;-0.01;100.00;100490.75;6204846;23;20024;-85
2022/01/08 05:42:05;;;;;;;55.83;37.35;;;;;;;-0.01;100.00;100493.41;6205295;23;20024;-86
2022/01/08 05:44:33;;;;;;;53.13;36.35;;;;;;;-0.06;100.00;100491.09;6153530;23;20371;-86
2022/01/08 05:46:59;;;;;;;56.80;37.22;;;;;;;-0.07;100.00;100499.09;6204637;23;20127;-86
2022/01/08 05:49:24;;;;;;;51.00;32.40;;;;;;;-0.10;100.00;100491.41;6178997;23;20026;-85
2022/01/08 05:51:50;;;;;;;43.15;29.30;;;;;;;-0.08;100.00;100492.16;6179379;23;20016;-86
2022/01/08 05:54:17;;;;;;;56.22;40.15;;;;;;;-0.08;100.00;100494.78;6155345;23;20343;-85
2022/01/08 05:56:44;;;;;;;62.80;42.08;;;;;;;-0.12;100.00;100501.19;6203512;23;20020;-86
2022/01/08 05:59:09;;;;;;;52.15;29.38;;;;;;;-0.15;100.00;100493.50;6179449;23;20039;-85
2022/01/08 06:01:37;;;;;;;54.83;30.65;;;;;;;-0.14;100.00;100503.13;6206487;23;20012;-86
2022/01/08 06:04:03;;;;;;;51.15;33.17;;;;;;;-0.13;100.00;100496.88;6181533;23;20020;-87
2022/01/08 06:06:30;;;;;;;51.13;29.23;;;;;;;-0.15;100.00;100506.69;6207518;23;20018;-87
2022/01/08 06:08:55;;;;;;;48.30;31.00;;;;;;;-0.15;100.00;100511.94;6157243;23;20432;-84
2022/01/08 06:11:21;;;;;;;50.85;30.27;;;;;;;-0.16;100.00;100513.75;6156100;23;20020;-86
2022/01/08 06:13:47;;;;;;;49.60;30.05;;;;;;;-0.07;100.00;100501.75;6156183;23;20455;-86
2022/01/08 06:16:14;;;;;;;48.78;32.58;;;;;;;-0.02;100.00;100513.66;6210582;23;20047;-84
2022/01/08 06:18:40;;;;;;;47.85;29.30;;;;;;;-0.04;100.00;100512.09;6207799;23;20005;-85
2022/01/08 06:21:06;;;;;;;42.92;29.77;;;;;;;0.00;100.00;100513.59;6211353;23;20023;-85
2022/01/08 06:23:32;;;;;;;47.55;31.13;;;;;;;0.05;100.00;100521.16;6201711;23;20012;-83
2022/01/08 06:25:57;;;;;;;45.17;28.15;;;;;;;-0.02;100.00;100518.09;6229451;23;20012;-86
2022/01/08 06:28:23;;;;;;;39.20;24.00;;;;;;;-0.02;100.00;100520.75;6201704;23;20013;-86
2022/01/08 06:30:48;;;;;;;36.05;24.52;;;;;;;-0.05;100.00;100518.31;6199716;23;20016;-86
2022/01/08 06:33:17;;;;;;;43.92;27.90;;;;;;;-0.04;100.00;100528.75;6147660;23;20356;-84
2022/01/08 06:35:43;;;;;;;;;;;;;;;-0.07;100.00;100534.22;6208983;23;20095;-85
2022/01/08 06:38:08;;;;;;;46.88;28.38;;;;;;;-0.17;100.00;100532.31;6181436;23;20292;-85
2022/01/08 06:40:34;;;;;;;48.35;23.70;;;;;;;-0.15;100.00;100551.50;6130592;23;20099;-84
2022/01/08 06:42:59;;;;;;;46.22;29.33;;;;;;;-0.10;100.00;100544.16;6180758;23;20051;-86
2022/01/08 06:45:25;;;;;;;49.22;34.30;;;;;;;-0.09;100.00;100541.41;6131572;23;20144;-85
2022/01/08 06:47:57;;;;;;;52.00;28.75;;;;;;;-0.14;100.00;100554.06;6154712;23;20025;-86
2022/01/08 06:50:22;;;;;;;48.45;34.17;;;;;;;-0.11;100.00;100555.66;6206150;23;20427;-87
2022/01/08 06:52:48;;;;;;;44.70;32.45;;;;;;;-0.10;100.00;100554.69;6178030;23;20348;-86
2022/01/08 06:55:14;;;;;;;56.15;35.60;;;;;;;-0.11;100.00;100558.31;6155457;23;20032;-85
2022/01/08 06:57:43;;;;;;;43.92;27.38;;;;;;;-0.12;100.00;100561.88;6206646;23;20470;-85
2022/01/08 07:00:09;;;;;;;46.85;32.08;;;;;;;-0.08;100.00;100551.03;6179609;23;20019;-86
2022/01/08 07:02:34;;;;;;;50.67;33.78;;;;;;;-0.05;100.00;100552.59;6155071;23;20022;-87
2022/01/08 07:05:01;;;;;;;50.15;30.27;;;;;;;-0.11;100.00;100559.13;6207814;23;20071;-84
2022/01/08 07:07:27;;;;;;;41.70;22.40;;;;;;;-0.11;100.00;100551.22;6130303;23;20706;-86
2022/01/08 07:09:58;;;;;;;50.80;31.92;;;;;;;-0.08;100.00;100550.19;6206706;23;20020;-86
2022/01/08 07:12:26;;;;;;;57.20;34.78;;;;;;;-0.11;100.00;100547.75;6154577;23;20013;-86
2022/01/08 07:14:53;;;;;;;46.05;29.40;;;;;;;-0.13;100.00;100560.19;6154821;23;20013;-86
2022/01/08 07:17:21;;;;;;;53.95;37.55;;;;;;;-0.14;100.00;100547.94;6179203;23;20380;-86
2022/01/08 07:19:47;;;;;;;50.60;28.08;;;;;;;-0.16;100.00;100555.09;6153844;23;20020;-85
2022/01/08 07:22:13;;;;;;;55.13;35.10;;;;;;;-0.17;100.00;100554.28;6180338;23;20013;-87
2022/01/08 07:24:40;;;;;;;47.13;28.88;;;;;;;-0.20;100.00;100551.84;6179325;23;20052;-88
2022/01/08 07:27:08;;;;;;;50.13;33.13;;;;;;;-0.18;100.00;100552.56;6206511;23;20020;-87
2022/01/08 07:29:34;;;;;;;58.72;37.30;;;;;;;-0.17;100.00;100561.31;6178147;23;20027;-87
2022/01/08 07:31:59;;;;;;;49.65;31.55;;;;;;;-0.18;100.00;100557.00;6205104;23;20021;-86
2022/01/08 07:34:25;;;;;;;52.72;34.00;;;;;;;-0.16;100.00;100560.38;6178876;23;20016;-85
2022/01/08 07:36:50;;;;;;;55.88;35.78;;;;;;;-0.18;100.00;100554.34;6175067;23;20078;-87
2022/01/08 07:39:16;;;;;;;55.60;34.15;;;;;;;-0.16;100.00;100560.38;6131011;23;20474;-85
2022/01/08 07:41:43;;;;;;;55.15;34.50;;;;;;;-0.15;100.00;100562.06;6154402;23;20027;-86
2022/01/08 07:44:12;;;;;;;51.55;34.13;;;;;;;-0.17;100.00;100559.53;6129028;23;20395;-86
2022/01/08 07:46:38;;;;;;;51.83;29.58;;;;;;;-0.14;100.00;100569.06;6203491;23;20463;-87
2022/01/08 07:49:04;;;;;;;52.22;32.40;;;;;;;-0.12;100.00;100567.13;6152241;23;20027;-85
2022/01/08 07:51:31;;;;;;;61.95;30.27;;;;;;;-0.09;100.00;100561.66;6126418;23;20036;-86
2022/01/08 07:53:59;;;;;;;41.05;24.85;;;;;;;-0.10;100.00;100570.53;6147057;23;20025;-86
2022/01/08 07:56:25;;;;;;;53.75;31.70;;;;;;;-0.06;100.00;100564.97;6203121;23;20526;-85
2022/01/08 07:58:50;;;;;;;58.80;36.72;;;;;;;0.00;100.00;100576.91;6201542;23;20016;-85
2022/01/08 08:01:21;;;;;;;50.15;29.85;;;;;;;-0.01;100.00;100565.47;6156225;23;20343;-86
2022/01/08 08:03:48;;;;;;;45.17;23.20;;;;;;;0.01;100.00;100560.13;6180312;23;20095;-85
2022/01/08 08:06:14;;;;;;;50.03;32.22;;;;;;;0.04;100.00;100559.91;6207884;23;20016;-86
2022/01/08 08:08:40;;;;;;;47.13;30.88;;;;;;;0.08;100.00;100556.09;6156084;23;20027;-86
2022/01/08 08:11:07;;;;;;;46.17;29.35;;;;;;;0.10;100.00;100564.78;6152106;23;20012;-85
2022/01/08 08:13:33;;;;;;;44.03;27.98;;;;;;;0.11;100.00;100558.53;6176120;23;20021;-85
2022/01/08 08:15:58;;;;;;;52.38;32.63;;;;;;;0.10;100.00;100554.22;6202024;23;20092;-86
2022/01/08 08:18:24;;;;;;;47.30;30.67;;;;;;;0.15;100.00;100560.03;6201765;23;20040;-86
2022/01/08 08:20:49;;;;;;;42.65;25.38;;;;;;;0.15;100.00;100546.84;6152878;23;20477;-86
2022/01/08 08:23:16;;;;;;;49.08;28.70;;;;;;;0.15;100.00;100546.84;6174467;23;20016;-86
2022/01/08 08:25:41;;;;;;;51.75;34.70;;;;;;;0.19;100.00;100545.66;6146863;23;20102;-85
2022/01/08 08:28:08;;;;;;;50.83;30.90;;;;;;;0.20;100.00;100536.81;6204497;23;20371;-86
2022/01/08 08:30:36;;;;;;;56.90;36.85;;;;;;;0.20;100.00;100543.88;6196575;23;20082;-86
2022/01/08 08:33:03;;;;;;;56.30;31.27;;;;;;;0.22;100.00;100534.91;6194166;23;20070;-85
2022/01/08 08:35:29;;;;;;;50.40;32.13;;;;;;;0.22;100.00;100536.72;6152209;23;20016;-86
2022/01/08 08:37:54;;;;;;;53.97;33.38;;;;;;;0.19;100.00;100529.00;6124374;23;20024;-86
2022/01/08 08:40:20;;;;;;;53.67;31.38;;;;;;;0.17;100.00;100525.59;6195177;23;20132;-85
2022/01/08 08:42:47;;;;;;;52.65;34.47;;;;;;;0.18;100.00;100522.88;6137277;23;20233;-86
2022/01/08 08:45:13;;;;;;;60.92;35.15;;;;;;;0.21;100.00;100532.38;6152885;23;20275;-85
2022/01/08 08:47:39;;;;;;;49.88;29.25;;;;;;;0.21;100.00;100532.38;6176010;23;20324;-87
2022/01/08 08:50:07;;;;;;;60.97;40.17;;;;;;;0.25;100.00;100522.47;6202223;23;20107;-86
2022/01/08 08:52:33;;;;;;;58.42;32.20;;;;;;;0.26;100.00;100532.94;6203284;23;20356;-85
2022/01/08 08:54:59;;;;;;;58.40;36.50;;;;;;;0.28;100.00;100533.66;6190804;23;20059;-85
2022/01/08 08:57:25;;;;;;;51.22;29.05;;;;;;;0.29;100.00;100522.16;6206342;23;20095;-85
2022/01/08 08:59:50;;;;;;;59.75;39.97;;;;;;;0.34;100.00;100527.09;6179290;23;20012;-86
2022/01/08 09:02:15;;;;;;;59.63;37.13;;;;;;;0.33;100.00;100525.44;6156481;23;20012;-86
2022/01/08 09:04:41;;;;;;;57.80;36.40;;;;;;;0.33;100.00;100510.44;6205975;23;20217;-86
2022/01/08 09:07:09;;;;;;;62.78;39.97;;;;;;;0.35;100.00;100513.81;6152519;23;20020;-86
2022/01/08 09:09:39;;;;;;;58.90;39.22;;;;;;;0.37;100.00;100516.34;6193989;23;20024;-86
2022/01/08 09:12:07;;;;;;;52.60;33.65;;;;;;;0.38;100.00;100515.41;6177640;23;20028;-86
2022/01/08 09:14:33;;;;;;;51.65;31.90;;;;;;;0.40;100.00;100516.13;6201274;23;20017;-85
2022/01/08 09:17:03;;;;;;;65.38;39.67;;;;;;;0.42;100.00;100514.22;6205625;23;20019;-85
2022/01/08 09:19:29;;;;;;;54.97;36.97;;;;;;;0.41;100.00;100507.28;6128839;23;20016;-84
2022/01/08 09:21:54;;;;;;;66.20;33.25;;;;;;;0.40;100.00;100510.84;6203864;23;20025;-86
2022/01/08 09:24:20;;;;;;;65.03;41.97;;;;;;;0.44;100.00;100513.19;6210211;23;20047;-86
2022/01/08 09:26:46;;;;;;;61.67;38.67;;;;;;;0.44;100.00;100513.19;6182062;23;20383;-85
2022/01/08 09:29:12;;;;;;;61.15;41.72;;;;;;;0.43;100.00;100510.63;6155717;23;20276;-85
2022/01/08 09:31:38;;;;;;;58.38;33.95;;;;;;;0.41;100.00;100508.09;6180090;23;20072;-86
2022/01/08 09:34:04;;;;;;;62.20;40.47;;;;;;;0.43;100.00;100505.34;6206287;23;20020;-85
2022/01/08 09:36:31;;;;;;;66.30;42.53;;;;;;;0.44;100.00;100512.34;6208581;23;20483;-85
2022/01/08 09:38:57;;;;;;;55.40;31.15;;;;;;;0.42;100.00;100511.59;6208396;23;20012;-85
2022/01/08 09:41:22;;;;;;;67.15;41.90;;;;;;;0.45;100.00;100506.94;6204320;23;20020;-85
2022/01/08 09:43:49;;;;;;;71.47;43.22;;;;;;;0.47;100.00;100501.56;6145578;23;20677;-85
2022/01/08 09:46:15;;;;;;;71.15;46.25;;;;;;;0.50;100.00;100511.06;6183626;23;20023;-84
2022/01/08 09:48:42;;;;;;;74.47;46.45;;;;;;;0.55;100.00;100508.97;6184225;23;20020;-85
2022/01/08 09:51:07;;;;;;;73.40;40.13;;;;;;;0.55;100.00;100503.69;6184968;23;20348;-85
2022/01/08 09:53:33;;;;;;;72.68;40.75;;;;;;;0.56;100.00;100502.72;6134397;23;20016;-85
2022/01/08 09:56:03;;;;;;;67.78;34.83;;;;;;;0.58;100.00;100500.81;6111869;23;20024;-85
2022/01/08 09:58:29;;;;;;;71.18;47.35;;;;;;;0.58;100.00;100499.03;6159077;23;20026;-86
2022/01/08 10:00:55;;;;;;;67.60;45.17;;;;;;;0.56;100.00;100489.50;6232514;23;20083;-85
2022/01/08 10:03:31;;;;;;;79.22;48.55;;;;;;;0.58;100.00;100492.91;6235867;23;20023;-85
2022/01/08 10:05:58;;;;;;;58.88;32.00;;;;;;;0.53;100.00;100490.56;6185458;23;20016;-86
2022/01/08 10:08:29;;;;;;;74.28;44.72;;;;;;;0.56;100.00;100477.16;6185331;23;20026;-86
2022/01/08 10:11:05;;;;;;;77.32;46.42;;;;;;;0.58;100.00;100477.88;6234244;23;20141;-86
2022/01/08 10:13:38;;;;;;;79.82;48.42;;;;;;;0.56;100.00;100461.31;6212100;23;20094;-86
2022/01/08 10:18:49;;;;;;;82.68;43.80;;;;;;;0.61;100.00;100463.63;6238198;23;20027;-85
2022/01/08 10:21:26;;;;;;;72.68;40.92;;;;;;;0.59;100.00;100453.16;6232369;23;20498;-85
2022/01/08 10:23:57;;;;;;;83.07;43.85;;;;;;;0.63;100.00;100436.16;6233081;23;20031;-86
2022/01/08 10:26:31;;;;;;;74.53;45.55;;;;;;;0.67;100.00;100450.81;6206986;23;20016;-86
2022/01/08 10:28:59;;;;;;;67.22;37.00;;;;;;;0.72;100.00;100439.06;6206367;23;20106;-86
2022/01/08 10:31:25;;;;;;;68.53;31.67;;;;;;;0.78;100.00;100436.88;6208812;23;20022;-86
2022/01/08 10:33:52;;;;;;;79.40;45.22;;;;;;;0.78;100.00;100430.75;6208054;23;20047;-86
2022/01/08 10:36:28;;;;;;;74.38;44.15;;;;;;;0.82;100.00;100426.91;6230634;23;20019;-87
2022/01/08 10:38:57;;;;;;;52.60;28.55;;;;;;;0.81;100.00;100422.59;6211749;23;20032;-87
2022/01/08 10:41:25;;;;;;;67.75;43.33;;;;;;;0.85;100.00;100422.25;6237330;23;20048;-86
2022/01/08 10:44:06;;;;;;;67.95;37.67;;;;;;;0.86;100.00;100408.09;6201581;23;20096;-86
2022/01/08 10:46:33;;;;;;;61.33;37.28;;;;;;;0.88;100.00;100402.69;6207240;23;20021;-86
2022/01/08 10:48:58;;;;;;;49.83;30.52;;;;;;;0.89;100.00;100381.47;6184207;23;20416;-86
2022/01/08 10:51:26;;;;;;;58.42;35.13;;;;;;;0.93;100.00;100376.78;6207725;23;20095;-86
2022/01/08 10:53:58;;;;;;;65.05;35.03;;;;;;;0.95;100.00;100372.22;6208683;23;20028;-88
2022/01/08 10:56:23;;;;;;;47.95;27.63;;;;;;;0.96;100.00;100371.28;6155293;23;20084;-86
2022/01/08 10:58:52;;;;;;;52.50;32.35;;;;;;;0.96;100.00;100359.88;6204851;23;20092;-87
2022/01/08 11:01:37;;;;;;;45.20;25.15;;;;;;;0.97;100.00;100346.53;6184464;23;20447;-87
2022/01/08 11:04:03;;;;;;;50.08;29.08;;;;;;;1.02;100.00;100340.91;6209630;23;20538;-87
2022/01/08 11:06:29;;;;;;;50.80;29.20;;;;;;;1.07;100.00;100341.41;6158593;23;20462;-87
2022/01/08 11:09:01;;;;;;;47.72;24.92;;;;;;;1.10;100.00;100343.81;6157867;23;20016;-87
2022/01/08 11:11:31;;;;;;;52.42;31.05;;;;;;;1.13;100.00;100347.06;6210138;23;20313;-88
2022/01/08 11:14:06;;;;;;;53.92;25.77;;;;;;;1.17;100.00;100342.41;6207775;23;20040;-88
2022/01/08 11:16:34;;;;;;;54.67;28.13;;;;;;;1.21;100.00;100335.94;6207645;23;20031;-87
2022/01/08 11:19:03;;;;;;;50.10;27.85;;;;;;;1.24;100.00;100325.13;6202087;22;20016;-87
2022/01/08 11:21:31;;;;;;;47.33;24.15;;;;;;;1.23;100.00;100317.31;6177280;23;20106;-86
2022/01/08 11:24:00;;;;;;;46.30;22.27;;;;;;;1.24;100.00;100319.00;6203983;23;20021;-87
2022/01/08 11:26:27;;;;;;;56.88;29.20;;;;;;;1.28;100.00;100305.44;6181783;23;20062;-87